sensor_id;sensor_type;location;lat;lon;timestamp;P1;durP1;ratioP1;P2;durP2;ratioP2
74904;SDS011;63465;50.862;6.220;2023-03-15T00:00:53;9.23;;;5.87;;
74904;SDS011;63465;50.862;6.220;2023-03-15T00:03:21;12.20;;;5.83;;
74904;SDS011;63465;50.862;6.220;2023-03-15T00:05:49;11.07;;;6.20;;
74904;SDS011;63465;50.862;6.220;2023-03-15T00:08:17;17.83;;;6.50;;
74904;SDS011;63465;50.862;6.220;2023-03-15T00:10:44;10.37;;;5.50;;
74904;SDS011;63465;50.862;6.220;2023-03-15T00:13:12;21.30;;;6.10;;
74904;SDS011;63465;50.862;6.220;2023-03-15T00:15:43;15.90;;;5.47;;
74904;SDS011;63465;50.862;6.220;2023-03-15T00:18:11;9.10;;;5.27;;
74904;SDS011;63465;50.862;6.220;2023-03-15T00:20:38;16.40;;;5.20;;
74904;SDS011;63465;50.862;6.220;2023-03-15T00:23:07;12.70;;;5.83;;
74904;SDS011;63465;50.862;6.220;2023-03-15T00:25:34;10.20;;;5.90;;
74904;SDS011;63465;50.862;6.220;2023-03-15T00:28:02;13.63;;;4.90;;
74904;SDS011;63465;50.862;6.220;2023-03-15T00:30:30;7.30;;;4.50;;
74904;SDS011;63465;50.862;6.220;2023-03-15T00:32:58;20.20;;;4.37;;
74904;SDS011;63465;50.862;6.220;2023-03-15T00:35:25;9.40;;;5.10;;
74904;SDS011;63465;50.862;6.220;2023-03-15T00:37:52;9.57;;;5.43;;
74904;SDS011;63465;50.862;6.220;2023-03-15T00:40:23;7.53;;;4.63;;
74904;SDS011;63465;50.862;6.220;2023-03-15T00:42:50;11.17;;;4.73;;
74904;SDS011;63465;50.862;6.220;2023-03-15T00:45:18;12.00;;;5.97;;
74904;SDS011;63465;50.862;6.220;2023-03-15T00:47:47;7.67;;;5.10;;
74904;SDS011;63465;50.862;6.220;2023-03-15T00:50:14;7.43;;;4.60;;
74904;SDS011;63465;50.862;6.220;2023-03-15T00:52:41;5.87;;;4.30;;
74904;SDS011;63465;50.862;6.220;2023-03-15T00:55:09;7.27;;;3.40;;
74904;SDS011;63465;50.862;6.220;2023-03-15T00:57:40;7.17;;;3.80;;
74904;SDS011;63465;50.862;6.220;2023-03-15T01:00:08;7.33;;;4.00;;
74904;SDS011;63465;50.862;6.220;2023-03-15T01:02:38;5.83;;;3.47;;
74904;SDS011;63465;50.862;6.220;2023-03-15T01:05:06;6.20;;;3.43;;
74904;SDS011;63465;50.862;6.220;2023-03-15T01:07:34;6.73;;;3.37;;
74904;SDS011;63465;50.862;6.220;2023-03-15T01:10:03;8.47;;;4.10;;
74904;SDS011;63465;50.862;6.220;2023-03-15T01:12:32;12.30;;;3.30;;
74904;SDS011;63465;50.862;6.220;2023-03-15T01:15:01;8.33;;;3.00;;
74904;SDS011;63465;50.862;6.220;2023-03-15T01:17:31;7.00;;;3.33;;
74904;SDS011;63465;50.862;6.220;2023-03-15T01:20:00;9.93;;;3.33;;
74904;SDS011;63465;50.862;6.220;2023-03-15T01:22:29;4.20;;;3.23;;
74904;SDS011;63465;50.862;6.220;2023-03-15T01:24:56;6.53;;;3.37;;
74904;SDS011;63465;50.862;6.220;2023-03-15T01:27:23;6.03;;;3.53;;
74904;SDS011;63465;50.862;6.220;2023-03-15T01:29:51;12.97;;;4.47;;
74904;SDS011;63465;50.862;6.220;2023-03-15T01:32:20;6.03;;;3.17;;
74904;SDS011;63465;50.862;6.220;2023-03-15T01:34:46;6.40;;;2.90;;
74904;SDS011;63465;50.862;6.220;2023-03-15T01:37:13;5.50;;;3.30;;
74904;SDS011;63465;50.862;6.220;2023-03-15T01:39:43;7.10;;;2.90;;
74904;SDS011;63465;50.862;6.220;2023-03-15T01:42:09;6.73;;;3.10;;
74904;SDS011;63465;50.862;6.220;2023-03-15T01:44:53;14.73;;;3.30;;
74904;SDS011;63465;50.862;6.220;2023-03-15T01:47:23;7.97;;;2.70;;
74904;SDS011;63465;50.862;6.220;2023-03-15T01:49:53;5.23;;;2.60;;
74904;SDS011;63465;50.862;6.220;2023-03-15T01:52:24;3.97;;;3.10;;
74904;SDS011;63465;50.862;6.220;2023-03-15T01:55:02;2.50;;;2.27;;
74904;SDS011;63465;50.862;6.220;2023-03-15T01:57:33;2.93;;;2.13;;
74904;SDS011;63465;50.862;6.220;2023-03-15T02:00:08;2.17;;;1.97;;
74904;SDS011;63465;50.862;6.220;2023-03-15T02:03:05;2.60;;;1.73;;
74904;SDS011;63465;50.862;6.220;2023-03-15T02:05:39;2.10;;;1.97;;
74904;SDS011;63465;50.862;6.220;2023-03-15T02:08:11;2.30;;;2.10;;
74904;SDS011;63465;50.862;6.220;2023-03-15T02:10:43;2.90;;;2.03;;
74904;SDS011;63465;50.862;6.220;2023-03-15T02:13:14;2.90;;;1.87;;
74904;SDS011;63465;50.862;6.220;2023-03-15T02:15:44;2.80;;;1.93;;
74904;SDS011;63465;50.862;6.220;2023-03-15T02:18:17;2.30;;;2.17;;
74904;SDS011;63465;50.862;6.220;2023-03-15T02:20:45;2.13;;;1.93;;
74904;SDS011;63465;50.862;6.220;2023-03-15T02:23:17;2.37;;;2.20;;
74904;SDS011;63465;50.862;6.220;2023-03-15T02:25:48;2.60;;;2.40;;
74904;SDS011;63465;50.862;6.220;2023-03-15T02:28:27;4.33;;;2.47;;
74904;SDS011;63465;50.862;6.220;2023-03-15T02:30:55;2.10;;;2.00;;
74904;SDS011;63465;50.862;6.220;2023-03-15T02:33:24;2.23;;;1.90;;
74904;SDS011;63465;50.862;6.220;2023-03-15T02:35:53;1.77;;;1.67;;
74904;SDS011;63465;50.862;6.220;2023-03-15T02:38:20;1.53;;;1.53;;
74904;SDS011;63465;50.862;6.220;2023-03-15T02:40:47;1.60;;;1.50;;
74904;SDS011;63465;50.862;6.220;2023-03-15T02:43:19;1.80;;;1.70;;
74904;SDS011;63465;50.862;6.220;2023-03-15T02:45:53;1.97;;;1.87;;
74904;SDS011;63465;50.862;6.220;2023-03-15T02:48:21;2.27;;;2.17;;
74904;SDS011;63465;50.862;6.220;2023-03-15T02:50:48;1.83;;;1.73;;
74904;SDS011;63465;50.862;6.220;2023-03-15T02:53:14;1.97;;;1.87;;
74904;SDS011;63465;50.862;6.220;2023-03-15T02:55:41;2.50;;;2.37;;
74904;SDS011;63465;50.862;6.220;2023-03-15T02:58:08;2.17;;;2.07;;
74904;SDS011;63465;50.862;6.220;2023-03-15T03:00:34;2.60;;;2.50;;
74904;SDS011;63465;50.862;6.220;2023-03-15T03:03:03;2.50;;;2.40;;
74904;SDS011;63465;50.862;6.220;2023-03-15T03:05:30;2.97;;;2.77;;
74904;SDS011;63465;50.862;6.220;2023-03-15T03:07:57;2.90;;;2.70;;
74904;SDS011;63465;50.862;6.220;2023-03-15T03:10:24;3.27;;;2.97;;
74904;SDS011;63465;50.862;6.220;2023-03-15T03:12:54;2.93;;;2.73;;
74904;SDS011;63465;50.862;6.220;2023-03-15T03:15:35;3.70;;;3.40;;
74904;SDS011;63465;50.862;6.220;2023-03-15T03:18:03;3.03;;;2.87;;
74904;SDS011;63465;50.862;6.220;2023-03-15T03:20:30;3.23;;;3.03;;
74904;SDS011;63465;50.862;6.220;2023-03-15T03:22:57;3.37;;;3.17;;
74904;SDS011;63465;50.862;6.220;2023-03-15T03:25:24;3.63;;;3.33;;
74904;SDS011;63465;50.862;6.220;2023-03-15T03:27:52;4.23;;;3.93;;
74904;SDS011;63465;50.862;6.220;2023-03-15T03:30:22;5.13;;;4.10;;
74904;SDS011;63465;50.862;6.220;2023-03-15T03:32:50;5.27;;;4.10;;
74904;SDS011;63465;50.862;6.220;2023-03-15T03:35:20;4.73;;;4.27;;
74904;SDS011;63465;50.862;6.220;2023-03-15T03:37:46;5.00;;;4.50;;
74904;SDS011;63465;50.862;6.220;2023-03-15T03:40:18;4.80;;;4.20;;
74904;SDS011;63465;50.862;6.220;2023-03-15T03:42:45;4.23;;;3.83;;
74904;SDS011;63465;50.862;6.220;2023-03-15T03:45:12;6.27;;;4.13;;
74904;SDS011;63465;50.862;6.220;2023-03-15T03:47:42;4.53;;;3.93;;
74904;SDS011;63465;50.862;6.220;2023-03-15T03:50:09;3.93;;;3.63;;
74904;SDS011;63465;50.862;6.220;2023-03-15T03:52:38;4.80;;;4.27;;
74904;SDS011;63465;50.862;6.220;2023-03-15T03:55:11;6.93;;;3.73;;
74904;SDS011;63465;50.862;6.220;2023-03-15T03:57:40;4.63;;;3.40;;
74904;SDS011;63465;50.862;6.220;2023-03-15T04:00:11;3.60;;;3.30;;
74904;SDS011;63465;50.862;6.220;2023-03-15T04:02:42;3.70;;;3.40;;
74904;SDS011;63465;50.862;6.220;2023-03-15T04:05:11;4.60;;;3.50;;
74904;SDS011;63465;50.862;6.220;2023-03-15T04:07:40;3.77;;;3.57;;
74904;SDS011;63465;50.862;6.220;2023-03-15T04:10:08;4.43;;;3.50;;
74904;SDS011;63465;50.862;6.220;2023-03-15T04:12:40;4.67;;;3.10;;
74904;SDS011;63465;50.862;6.220;2023-03-15T04:15:07;3.30;;;2.97;;
74904;SDS011;63465;50.862;6.220;2023-03-15T04:17:35;3.60;;;3.27;;
74904;SDS011;63465;50.862;6.220;2023-03-15T04:20:02;3.30;;;3.00;;
74904;SDS011;63465;50.862;6.220;2023-03-15T04:22:34;3.20;;;2.80;;
74904;SDS011;63465;50.862;6.220;2023-03-15T04:25:17;4.10;;;3.53;;
74904;SDS011;63465;50.862;6.220;2023-03-15T04:28:05;3.10;;;2.90;;
74904;SDS011;63465;50.862;6.220;2023-03-15T04:30:53;5.20;;;3.40;;
74904;SDS011;63465;50.862;6.220;2023-03-15T04:33:38;3.30;;;3.10;;
74904;SDS011;63465;50.862;6.220;2023-03-15T04:36:22;4.60;;;3.63;;
74904;SDS011;63465;50.862;6.220;2023-03-15T04:39:08;4.50;;;4.10;;
74904;SDS011;63465;50.862;6.220;2023-03-15T04:41:51;5.70;;;3.93;;
74904;SDS011;63465;50.862;6.220;2023-03-15T04:44:51;7.00;;;4.70;;
74904;SDS011;63465;50.862;6.220;2023-03-15T04:47:37;5.50;;;4.40;;
74904;SDS011;63465;50.862;6.220;2023-03-15T04:50:42;6.10;;;5.10;;
74904;SDS011;63465;50.862;6.220;2023-03-15T04:53:28;7.67;;;5.20;;
74904;SDS011;63465;50.862;6.220;2023-03-15T04:56:25;13.70;;;5.80;;
74904;SDS011;63465;50.862;6.220;2023-03-15T04:59:09;8.40;;;6.20;;
74904;SDS011;63465;50.862;6.220;2023-03-15T05:01:36;9.60;;;6.50;;
74904;SDS011;63465;50.862;6.220;2023-03-15T05:04:15;8.90;;;5.90;;
74904;SDS011;63465;50.862;6.220;2023-03-15T05:07:01;10.70;;;6.10;;
74904;SDS011;63465;50.862;6.220;2023-03-15T05:09:28;11.63;;;6.53;;
74904;SDS011;63465;50.862;6.220;2023-03-15T05:12:21;9.10;;;5.77;;
74904;SDS011;63465;50.862;6.220;2023-03-15T05:14:58;6.77;;;5.83;;
74904;SDS011;63465;50.862;6.220;2023-03-15T05:17:54;9.63;;;6.33;;
74904;SDS011;63465;50.862;6.220;2023-03-15T05:20:34;8.57;;;5.87;;
74904;SDS011;63465;50.862;6.220;2023-03-15T05:23:09;8.97;;;6.20;;
74904;SDS011;63465;50.862;6.220;2023-03-15T05:25:49;11.00;;;6.67;;
74904;SDS011;63465;50.862;6.220;2023-03-15T05:28:37;11.97;;;6.20;;
74904;SDS011;63465;50.862;6.220;2023-03-15T05:31:15;9.13;;;6.20;;
74904;SDS011;63465;50.862;6.220;2023-03-15T05:34:01;16.53;;;5.90;;
74904;SDS011;63465;50.862;6.220;2023-03-15T05:36:28;14.97;;;6.17;;
74904;SDS011;63465;50.862;6.220;2023-03-15T05:39:13;13.83;;;7.10;;
74904;SDS011;63465;50.862;6.220;2023-03-15T05:42:01;9.23;;;6.07;;
74904;SDS011;63465;50.862;6.220;2023-03-15T05:44:54;10.10;;;6.30;;
74904;SDS011;63465;50.862;6.220;2023-03-15T05:47:43;7.80;;;6.00;;
74904;SDS011;63465;50.862;6.220;2023-03-15T05:50:27;10.40;;;6.83;;
74904;SDS011;63465;50.862;6.220;2023-03-15T05:53:23;10.30;;;6.93;;
74904;SDS011;63465;50.862;6.220;2023-03-15T05:56:13;6.77;;;5.10;;
74904;SDS011;63465;50.862;6.220;2023-03-15T05:59:00;9.10;;;5.93;;
74904;SDS011;63465;50.862;6.220;2023-03-15T06:01:49;8.23;;;5.23;;
74904;SDS011;63465;50.862;6.220;2023-03-15T06:04:34;6.20;;;5.20;;
74904;SDS011;63465;50.862;6.220;2023-03-15T06:07:02;9.43;;;5.70;;
74904;SDS011;63465;50.862;6.220;2023-03-15T06:09:30;8.07;;;5.17;;
74904;SDS011;63465;50.862;6.220;2023-03-15T06:11:56;8.67;;;5.40;;
74904;SDS011;63465;50.862;6.220;2023-03-15T06:14:25;8.20;;;5.10;;
74904;SDS011;63465;50.862;6.220;2023-03-15T06:16:55;7.63;;;5.40;;
74904;SDS011;63465;50.862;6.220;2023-03-15T06:19:24;7.40;;;4.77;;
74904;SDS011;63465;50.862;6.220;2023-03-15T06:21:54;8.20;;;5.50;;
74904;SDS011;63465;50.862;6.220;2023-03-15T06:24:29;5.70;;;4.93;;
74904;SDS011;63465;50.862;6.220;2023-03-15T06:26:56;9.30;;;5.80;;
74904;SDS011;63465;50.862;6.220;2023-03-15T06:29:23;8.70;;;5.73;;
74904;SDS011;63465;50.862;6.220;2023-03-15T06:31:52;7.30;;;4.80;;
74904;SDS011;63465;50.862;6.220;2023-03-15T06:34:19;8.60;;;6.13;;
74904;SDS011;63465;50.862;6.220;2023-03-15T06:36:49;8.20;;;5.70;;
74904;SDS011;63465;50.862;6.220;2023-03-15T06:39:18;8.17;;;5.60;;
74904;SDS011;63465;50.862;6.220;2023-03-15T06:41:45;7.37;;;5.43;;
74904;SDS011;63465;50.862;6.220;2023-03-15T06:44:17;13.30;;;5.70;;
74904;SDS011;63465;50.862;6.220;2023-03-15T06:46:45;7.20;;;4.93;;
74904;SDS011;63465;50.862;6.220;2023-03-15T06:49:12;8.70;;;6.07;;
74904;SDS011;63465;50.862;6.220;2023-03-15T06:51:40;11.17;;;6.40;;
74904;SDS011;63465;50.862;6.220;2023-03-15T06:54:09;9.43;;;6.30;;
74904;SDS011;63465;50.862;6.220;2023-03-15T06:56:38;14.83;;;5.50;;
74904;SDS011;63465;50.862;6.220;2023-03-15T06:59:05;7.13;;;5.43;;
74904;SDS011;63465;50.862;6.220;2023-03-15T07:01:31;7.07;;;5.83;;
74904;SDS011;63465;50.862;6.220;2023-03-15T07:03:58;7.37;;;5.83;;
74904;SDS011;63465;50.862;6.220;2023-03-15T07:06:25;9.30;;;6.00;;
74904;SDS011;63465;50.862;6.220;2023-03-15T07:08:53;12.20;;;6.67;;
74904;SDS011;63465;50.862;6.220;2023-03-15T07:11:20;9.43;;;6.57;;
74904;SDS011;63465;50.862;6.220;2023-03-15T07:13:48;9.87;;;6.47;;
74904;SDS011;63465;50.862;6.220;2023-03-15T07:16:14;11.07;;;6.47;;
74904;SDS011;63465;50.862;6.220;2023-03-15T07:18:41;8.90;;;5.67;;
74904;SDS011;63465;50.862;6.220;2023-03-15T07:21:08;7.90;;;5.83;;
74904;SDS011;63465;50.862;6.220;2023-03-15T07:23:35;13.03;;;6.17;;
74904;SDS011;63465;50.862;6.220;2023-03-15T07:26:01;8.23;;;5.43;;
74904;SDS011;63465;50.862;6.220;2023-03-15T07:28:28;8.90;;;6.40;;
74904;SDS011;63465;50.862;6.220;2023-03-15T07:30:57;11.10;;;5.77;;
74904;SDS011;63465;50.862;6.220;2023-03-15T07:33:26;12.03;;;5.60;;
74904;SDS011;63465;50.862;6.220;2023-03-15T07:35:54;10.67;;;6.73;;
74904;SDS011;63465;50.862;6.220;2023-03-15T07:38:21;7.90;;;6.00;;
74904;SDS011;63465;50.862;6.220;2023-03-15T07:40:49;9.57;;;5.93;;
74904;SDS011;63465;50.862;6.220;2023-03-15T07:43:15;9.37;;;6.03;;
74904;SDS011;63465;50.862;6.220;2023-03-15T07:45:44;9.00;;;6.23;;
74904;SDS011;63465;50.862;6.220;2023-03-15T07:48:12;11.20;;;7.50;;
74904;SDS011;63465;50.862;6.220;2023-03-15T07:50:39;10.63;;;6.50;;
74904;SDS011;63465;50.862;6.220;2023-03-15T07:53:06;11.00;;;6.40;;
74904;SDS011;63465;50.862;6.220;2023-03-15T07:55:33;11.73;;;6.17;;
74904;SDS011;63465;50.862;6.220;2023-03-15T07:58:00;10.43;;;6.50;;
74904;SDS011;63465;50.862;6.220;2023-03-15T08:00:27;10.67;;;6.67;;
74904;SDS011;63465;50.862;6.220;2023-03-15T08:02:54;9.80;;;6.53;;
74904;SDS011;63465;50.862;6.220;2023-03-15T08:05:22;7.57;;;6.00;;
74904;SDS011;63465;50.862;6.220;2023-03-15T08:07:49;7.97;;;6.20;;
74904;SDS011;63465;50.862;6.220;2023-03-15T08:10:16;10.13;;;5.93;;
74904;SDS011;63465;50.862;6.220;2023-03-15T08:12:43;12.87;;;5.80;;
74904;SDS011;63465;50.862;6.220;2023-03-15T08:15:10;16.10;;;6.93;;
74904;SDS011;63465;50.862;6.220;2023-03-15T08:17:38;8.87;;;6.47;;
74904;SDS011;63465;50.862;6.220;2023-03-15T08:20:06;9.07;;;5.77;;
74904;SDS011;63465;50.862;6.220;2023-03-15T08:22:37;8.00;;;5.80;;
74904;SDS011;63465;50.862;6.220;2023-03-15T08:25:04;9.60;;;5.77;;
74904;SDS011;63465;50.862;6.220;2023-03-15T08:27:31;9.50;;;5.40;;
74904;SDS011;63465;50.862;6.220;2023-03-15T08:29:58;9.67;;;5.33;;
74904;SDS011;63465;50.862;6.220;2023-03-15T08:32:25;7.57;;;5.37;;
74904;SDS011;63465;50.862;6.220;2023-03-15T08:34:52;12.10;;;5.43;;
74904;SDS011;63465;50.862;6.220;2023-03-15T08:37:19;10.50;;;5.30;;
74904;SDS011;63465;50.862;6.220;2023-03-15T08:39:47;8.07;;;5.43;;
74904;SDS011;63465;50.862;6.220;2023-03-15T08:42:14;10.20;;;5.97;;
74904;SDS011;63465;50.862;6.220;2023-03-15T08:44:40;9.63;;;6.00;;
74904;SDS011;63465;50.862;6.220;2023-03-15T08:47:07;7.10;;;5.77;;
74904;SDS011;63465;50.862;6.220;2023-03-15T08:49:35;6.10;;;4.53;;
74904;SDS011;63465;50.862;6.220;2023-03-15T08:52:01;6.53;;;5.40;;
74904;SDS011;63465;50.862;6.220;2023-03-15T08:54:28;8.27;;;5.37;;
74904;SDS011;63465;50.862;6.220;2023-03-15T08:56:57;9.37;;;5.20;;
74904;SDS011;63465;50.862;6.220;2023-03-15T08:59:23;7.30;;;4.67;;
74904;SDS011;63465;50.862;6.220;2023-03-15T09:01:50;6.10;;;4.77;;
74904;SDS011;63465;50.862;6.220;2023-03-15T09:04:17;7.33;;;4.80;;
74904;SDS011;63465;50.862;6.220;2023-03-15T09:06:44;11.03;;;5.43;;
74904;SDS011;63465;50.862;6.220;2023-03-15T09:09:11;6.47;;;4.53;;
74904;SDS011;63465;50.862;6.220;2023-03-15T09:11:41;7.63;;;4.60;;
74904;SDS011;63465;50.862;6.220;2023-03-15T09:14:09;7.57;;;5.10;;
74904;SDS011;63465;50.862;6.220;2023-03-15T09:16:36;6.10;;;4.60;;
74904;SDS011;63465;50.862;6.220;2023-03-15T09:19:03;7.77;;;5.13;;
74904;SDS011;63465;50.862;6.220;2023-03-15T09:21:29;7.47;;;5.50;;
74904;SDS011;63465;50.862;6.220;2023-03-15T09:23:56;5.70;;;5.10;;
74904;SDS011;63465;50.862;6.220;2023-03-15T09:26:23;15.57;;;5.30;;
74904;SDS011;63465;50.862;6.220;2023-03-15T09:28:49;12.00;;;5.53;;
74904;SDS011;63465;50.862;6.220;2023-03-15T09:31:17;6.33;;;5.20;;
74904;SDS011;63465;50.862;6.220;2023-03-15T09:33:44;13.63;;;4.70;;
74904;SDS011;63465;50.862;6.220;2023-03-15T09:36:11;5.73;;;5.00;;
74904;SDS011;63465;50.862;6.220;2023-03-15T09:38:37;4.93;;;4.10;;
74904;SDS011;63465;50.862;6.220;2023-03-15T09:41:10;6.73;;;4.30;;
74904;SDS011;63465;50.862;6.220;2023-03-15T09:43:57;4.30;;;3.90;;
74904;SDS011;63465;50.862;6.220;2023-03-15T09:46:32;11.17;;;5.20;;
74904;SDS011;63465;50.862;6.220;2023-03-15T09:49:07;12.90;;;5.30;;
74904;SDS011;63465;50.862;6.220;2023-03-15T09:51:39;7.03;;;4.80;;
74904;SDS011;63465;50.862;6.220;2023-03-15T09:54:12;3.90;;;3.10;;
74904;SDS011;63465;50.862;6.220;2023-03-15T09:56:43;5.97;;;3.70;;
74904;SDS011;63465;50.862;6.220;2023-03-15T09:59:15;5.40;;;3.87;;
74904;SDS011;63465;50.862;6.220;2023-03-15T10:01:48;9.97;;;3.97;;
74904;SDS011;63465;50.862;6.220;2023-03-15T10:04:22;4.90;;;3.87;;
74904;SDS011;63465;50.862;6.220;2023-03-15T10:06:54;6.07;;;4.87;;
74904;SDS011;63465;50.862;6.220;2023-03-15T10:09:23;6.03;;;4.27;;
74904;SDS011;63465;50.862;6.220;2023-03-15T10:11:55;5.80;;;3.97;;
74904;SDS011;63465;50.862;6.220;2023-03-15T10:14:31;5.90;;;3.87;;
74904;SDS011;63465;50.862;6.220;2023-03-15T10:17:20;3.17;;;2.90;;
74904;SDS011;63465;50.862;6.220;2023-03-15T10:19:54;6.93;;;3.80;;
74904;SDS011;63465;50.862;6.220;2023-03-15T10:22:27;6.47;;;4.00;;
74904;SDS011;63465;50.862;6.220;2023-03-15T10:24:59;7.33;;;4.00;;
74904;SDS011;63465;50.862;6.220;2023-03-15T10:27:31;3.77;;;3.40;;
74904;SDS011;63465;50.862;6.220;2023-03-15T10:30:02;5.47;;;3.70;;
74904;SDS011;63465;50.862;6.220;2023-03-15T10:32:42;4.57;;;3.00;;
74904;SDS011;63465;50.862;6.220;2023-03-15T10:35:12;3.30;;;2.80;;
74904;SDS011;63465;50.862;6.220;2023-03-15T10:37:41;2.67;;;2.30;;
74904;SDS011;63465;50.862;6.220;2023-03-15T10:40:08;3.00;;;2.40;;
74904;SDS011;63465;50.862;6.220;2023-03-15T10:42:40;3.83;;;2.80;;
74904;SDS011;63465;50.862;6.220;2023-03-15T10:45:12;5.07;;;3.10;;
74904;SDS011;63465;50.862;6.220;2023-03-15T10:47:46;5.90;;;2.93;;
74904;SDS011;63465;50.862;6.220;2023-03-15T10:50:17;8.07;;;2.80;;
74904;SDS011;63465;50.862;6.220;2023-03-15T10:52:53;2.70;;;2.27;;
74904;SDS011;63465;50.862;6.220;2023-03-15T10:55:27;2.90;;;2.30;;
74904;SDS011;63465;50.862;6.220;2023-03-15T10:57:58;6.90;;;3.67;;
74904;SDS011;63465;50.862;6.220;2023-03-15T11:00:38;7.77;;;3.90;;
74904;SDS011;63465;50.862;6.220;2023-03-15T11:03:16;8.33;;;3.70;;
74904;SDS011;63465;50.862;6.220;2023-03-15T11:05:45;4.93;;;2.80;;
74904;SDS011;63465;50.862;6.220;2023-03-15T11:08:14;5.60;;;2.77;;
74904;SDS011;63465;50.862;6.220;2023-03-15T11:10:42;7.07;;;2.53;;
74904;SDS011;63465;50.862;6.220;2023-03-15T11:13:11;3.10;;;2.77;;
74904;SDS011;63465;50.862;6.220;2023-03-15T11:15:46;3.20;;;2.90;;
74904;SDS011;63465;50.862;6.220;2023-03-15T11:18:23;2.87;;;2.23;;
74904;SDS011;63465;50.862;6.220;2023-03-15T11:20:52;5.47;;;2.80;;
74904;SDS011;63465;50.862;6.220;2023-03-15T11:23:23;3.10;;;1.80;;
74904;SDS011;63465;50.862;6.220;2023-03-15T11:25:51;7.33;;;2.50;;
74904;SDS011;63465;50.862;6.220;2023-03-15T11:28:19;1.87;;;1.77;;
74904;SDS011;63465;50.862;6.220;2023-03-15T11:30:51;3.10;;;1.90;;
74904;SDS011;63465;50.862;6.220;2023-03-15T11:33:24;2.20;;;2.00;;
74904;SDS011;63465;50.862;6.220;2023-03-15T11:35:58;4.30;;;2.00;;
74904;SDS011;63465;50.862;6.220;2023-03-15T11:38:29;2.30;;;2.10;;
74904;SDS011;63465;50.862;6.220;2023-03-15T11:40:59;2.73;;;1.67;;
74904;SDS011;63465;50.862;6.220;2023-03-15T11:43:32;2.50;;;2.20;;
74904;SDS011;63465;50.862;6.220;2023-03-15T11:46:13;1.80;;;1.70;;
74904;SDS011;63465;50.862;6.220;2023-03-15T11:48:51;2.30;;;1.70;;
74904;SDS011;63465;50.862;6.220;2023-03-15T11:51:24;4.73;;;2.00;;
74904;SDS011;63465;50.862;6.220;2023-03-15T11:53:54;2.30;;;1.60;;
74904;SDS011;63465;50.862;6.220;2023-03-15T11:56:43;2.60;;;1.57;;
74904;SDS011;63465;50.862;6.220;2023-03-15T11:59:14;9.10;;;2.33;;
74904;SDS011;63465;50.862;6.220;2023-03-15T12:01:44;2.63;;;1.80;;
74904;SDS011;63465;50.862;6.220;2023-03-15T12:04:35;2.13;;;1.93;;
74904;SDS011;63465;50.862;6.220;2023-03-15T12:07:10;4.83;;;1.80;;
74904;SDS011;63465;50.862;6.220;2023-03-15T12:09:53;5.23;;;2.13;;
74904;SDS011;63465;50.862;6.220;2023-03-15T12:12:34;5.13;;;2.00;;
74904;SDS011;63465;50.862;6.220;2023-03-15T12:15:04;3.87;;;2.00;;
74904;SDS011;63465;50.862;6.220;2023-03-15T12:17:43;4.03;;;1.80;;
74904;SDS011;63465;50.862;6.220;2023-03-15T12:20:20;1.93;;;1.03;;
74904;SDS011;63465;50.862;6.220;2023-03-15T12:22:56;3.73;;;1.40;;
74904;SDS011;63465;50.862;6.220;2023-03-15T12:25:42;4.43;;;1.50;;
74904;SDS011;63465;50.862;6.220;2023-03-15T12:28:18;6.20;;;2.00;;
74904;SDS011;63465;50.862;6.220;2023-03-15T12:30:51;4.23;;;2.10;;
74904;SDS011;63465;50.862;6.220;2023-03-15T12:33:21;3.50;;;2.00;;
74904;SDS011;63465;50.862;6.220;2023-03-15T12:35:50;4.60;;;1.80;;
74904;SDS011;63465;50.862;6.220;2023-03-15T12:38:27;2.10;;;1.87;;
74904;SDS011;63465;50.862;6.220;2023-03-15T12:41:00;2.77;;;1.70;;
74904;SDS011;63465;50.862;6.220;2023-03-15T12:43:37;2.93;;;2.50;;
74904;SDS011;63465;50.862;6.220;2023-03-15T12:46:05;4.80;;;1.90;;
74904;SDS011;63465;50.862;6.220;2023-03-15T12:48:32;4.33;;;1.83;;
74904;SDS011;63465;50.862;6.220;2023-03-15T12:51:01;3.33;;;2.23;;
74904;SDS011;63465;50.862;6.220;2023-03-15T12:53:40;3.00;;;2.00;;
74904;SDS011;63465;50.862;6.220;2023-03-15T12:56:24;2.30;;;2.13;;
74904;SDS011;63465;50.862;6.220;2023-03-15T12:58:57;2.43;;;2.13;;
74904;SDS011;63465;50.862;6.220;2023-03-15T13:01:29;4.60;;;2.30;;
74904;SDS011;63465;50.862;6.220;2023-03-15T13:03:57;2.10;;;1.93;;
74904;SDS011;63465;50.862;6.220;2023-03-15T13:06:30;3.80;;;2.17;;
74904;SDS011;63465;50.862;6.220;2023-03-15T13:09:08;2.20;;;2.10;;
74904;SDS011;63465;50.862;6.220;2023-03-15T13:11:42;2.07;;;1.87;;
74904;SDS011;63465;50.862;6.220;2023-03-15T13:14:20;1.90;;;1.80;;
74904;SDS011;63465;50.862;6.220;2023-03-15T13:16:56;2.83;;;1.50;;
74904;SDS011;63465;50.862;6.220;2023-03-15T13:19:29;1.73;;;1.63;;
74904;SDS011;63465;50.862;6.220;2023-03-15T13:22:04;3.77;;;1.40;;
74904;SDS011;63465;50.862;6.220;2023-03-15T13:24:40;1.90;;;1.53;;
74904;SDS011;63465;50.862;6.220;2023-03-15T13:27:20;1.40;;;1.30;;
74904;SDS011;63465;50.862;6.220;2023-03-15T13:30:00;3.63;;;2.10;;
74904;SDS011;63465;50.862;6.220;2023-03-15T13:32:29;2.73;;;1.73;;
74904;SDS011;63465;50.862;6.220;2023-03-15T13:34:55;2.60;;;1.70;;
74904;SDS011;63465;50.862;6.220;2023-03-15T13:37:24;2.90;;;1.50;;
74904;SDS011;63465;50.862;6.220;2023-03-15T13:39:52;2.60;;;1.93;;
74904;SDS011;63465;50.862;6.220;2023-03-15T13:42:21;1.83;;;1.73;;
74904;SDS011;63465;50.862;6.220;2023-03-15T13:47:39;1.83;;;1.73;;
74904;SDS011;63465;50.862;6.220;2023-03-15T13:50:10;1.77;;;1.67;;
74904;SDS011;63465;50.862;6.220;2023-03-15T13:52:41;2.73;;;2.00;;
74904;SDS011;63465;50.862;6.220;2023-03-15T13:55:11;2.43;;;2.03;;
74904;SDS011;63465;50.862;6.220;2023-03-15T13:57:39;3.80;;;1.80;;
74904;SDS011;63465;50.862;6.220;2023-03-15T14:00:07;1.70;;;1.60;;
74904;SDS011;63465;50.862;6.220;2023-03-15T14:02:43;4.97;;;1.90;;
74904;SDS011;63465;50.862;6.220;2023-03-15T14:05:13;1.37;;;1.37;;
74904;SDS011;63465;50.862;6.220;2023-03-15T14:07:44;3.10;;;1.47;;
74904;SDS011;63465;50.862;6.220;2023-03-15T14:10:21;1.53;;;1.43;;
74904;SDS011;63465;50.862;6.220;2023-03-15T14:12:51;2.73;;;1.60;;
74904;SDS011;63465;50.862;6.220;2023-03-15T14:15:19;1.20;;;1.20;;
74904;SDS011;63465;50.862;6.220;2023-03-15T14:17:52;1.23;;;1.13;;
74904;SDS011;63465;50.862;6.220;2023-03-15T14:20:24;1.67;;;1.10;;
74904;SDS011;63465;50.862;6.220;2023-03-15T14:23:02;3.47;;;1.13;;
74904;SDS011;63465;50.862;6.220;2023-03-15T14:25:32;3.23;;;1.40;;
74904;SDS011;63465;50.862;6.220;2023-03-15T14:28:01;3.20;;;1.70;;
74904;SDS011;63465;50.862;6.220;2023-03-15T14:30:29;5.53;;;1.60;;
74904;SDS011;63465;50.862;6.220;2023-03-15T14:33:00;3.87;;;1.40;;
74904;SDS011;63465;50.862;6.220;2023-03-15T14:35:29;1.50;;;1.40;;
74904;SDS011;63465;50.862;6.220;2023-03-15T14:38:03;5.10;;;1.50;;
74904;SDS011;63465;50.862;6.220;2023-03-15T14:40:33;1.43;;;1.23;;
74904;SDS011;63465;50.862;6.220;2023-03-15T14:43:03;1.33;;;1.23;;
74904;SDS011;63465;50.862;6.220;2023-03-15T14:45:31;1.40;;;1.30;;
74904;SDS011;63465;50.862;6.220;2023-03-15T14:47:59;1.57;;;1.47;;
74904;SDS011;63465;50.862;6.220;2023-03-15T14:50:30;5.70;;;1.30;;
74904;SDS011;63465;50.862;6.220;2023-03-15T14:53:02;5.13;;;1.47;;
74904;SDS011;63465;50.862;6.220;2023-03-15T14:55:32;3.20;;;1.70;;
74904;SDS011;63465;50.862;6.220;2023-03-15T14:58:00;2.33;;;1.40;;
74904;SDS011;63465;50.862;6.220;2023-03-15T15:00:27;1.40;;;1.30;;
74904;SDS011;63465;50.862;6.220;2023-03-15T15:02:55;5.50;;;2.20;;
74904;SDS011;63465;50.862;6.220;2023-03-15T15:05:23;2.50;;;1.50;;
74904;SDS011;63465;50.862;6.220;2023-03-15T15:08:02;2.80;;;1.57;;
74904;SDS011;63465;50.862;6.220;2023-03-15T15:10:31;1.53;;;1.33;;
74904;SDS011;63465;50.862;6.220;2023-03-15T15:12:59;1.30;;;1.30;;
74904;SDS011;63465;50.862;6.220;2023-03-15T15:15:25;1.93;;;1.37;;